Time;durP1;ratioP1;P1;durP2;ratioP2;P2;SDS_P1;SDS_P2;PMS_P1;PMS_P2;Temp;Humidity;BMP_temperature;BMP_pressure;BME280_temperature;BME280_humidity;BME280_pressure;Samples;Min_cycle;Max_cycle;Signal;HPM_P1;HPM_P2
2022/07/28 00:01:00;;;;;;;4.97;1.73;;;13.00;74.80;;;;;;5036342;28;20208;-89
2022/07/28 00:03:25;;;;;;;8.57;2.07;;;13.00;74.50;;;;;;5036806;28;20272;-89
2022/07/28 00:05:51;;;;;;;7.20;1.77;;;12.90;74.40;;;;;;5036136;28;20200;-89
2022/07/28 00:08:16;;;;;;;8.13;2.07;;;12.90;74.70;;;;;;5036496;28;20180;-89
2022/07/28 00:10:42;;;;;;;8.27;1.80;;;12.80;75.10;;;;;;5036477;28;20203;-88
2022/07/28 00:13:07;;;;;;;6.47;1.83;;;12.80;75.70;;;;;;5035914;28;20183;-88
2022/07/28 00:15:33;;;;;;;4.83;1.93;;;12.80;75.40;;;;;;5041880;28;20286;-89
2022/07/28 00:17:59;;;;;;;6.07;2.00;;;12.80;75.60;;;;;;5042812;28;20190;-88
2022/07/28 00:20:26;;;;;;;8.30;2.00;;;12.70;76.00;;;;;;5042310;28;20233;-88
2022/07/28 00:22:52;;;;;;;3.77;1.77;;;12.70;76.70;;;;;;5042174;28;20225;-88
2022/07/28 00:25:18;;;;;;;4.53;1.70;;;12.70;76.50;;;;;;5043485;28;20199;-89
2022/07/28 00:27:43;;;;;;;3.20;1.43;;;12.60;76.90;;;;;;5043168;28;20642;-89
2022/07/28 00:30:10;;;;;;;6.77;1.70;;;12.50;77.50;;;;;;5043078;28;20187;-89
2022/07/28 00:32:36;;;;;;;4.90;1.40;;;12.50;78.00;;;;;;5060146;28;20274;-88
2022/07/28 00:35:02;;;;;;;6.83;2.00;;;12.40;79.40;;;;;;5042055;28;20211;-89
2022/07/28 00:37:28;;;;;;;5.70;1.93;;;12.40;79.60;;;;;;5060454;28;20183;-89
2022/07/28 00:39:53;;;;;;;3.93;2.03;;;12.30;81.20;;;;;;5042106;28;20203;-88
2022/07/28 00:42:20;;;;;;;7.07;2.00;;;12.20;82.10;;;;;;5041771;28;20186;-89
2022/07/28 00:44:46;;;;;;;5.17;2.10;;;12.10;82.60;;;;;;5041742;28;20195;-88
2022/07/28 00:47:12;;;;;;;10.53;2.03;;;12.00;82.90;;;;;;5042222;28;20176;-88
2022/07/28 00:49:38;;;;;;;7.57;2.30;;;12.00;83.10;;;;;;5042692;28;20179;-89
2022/07/28 00:52:06;;;;;;;7.07;2.07;;;12.10;83.30;;;;;;5041655;28;20176;-88
2022/07/28 00:54:32;;;;;;;6.43;1.60;;;12.20;83.20;;;;;;5060180;28;20237;-88
2022/07/28 00:56:58;;;;;;;4.30;1.87;;;12.30;82.90;;;;;;5041648;28;20259;-88
2022/07/28 00:59:24;;;;;;;7.47;2.20;;;12.30;82.50;;;;;;5041652;28;20604;-89
2022/07/28 01:01:50;;;;;;;6.93;2.03;;;12.40;82.00;;;;;;5059314;28;20203;-88
2022/07/28 01:04:17;;;;;;;8.23;2.33;;;12.50;81.50;;;;;;5059693;28;20713;-88
2022/07/28 01:06:57;;;;;;;7.73;2.03;;;12.50;81.10;;;;;;5042287;28;20183;-89
2022/07/28 01:10:01;;;;;;;5.63;1.80;;;12.50;80.10;;;;;;5042593;28;20172;-89
2022/07/28 01:12:54;;;;;;;4.60;1.80;;;12.60;81.30;;;;;;5043177;28;20269;-90
2022/07/28 01:15:32;;;;;;;7.17;1.90;;;12.50;81.60;;;;;;5043211;28;20290;-89
2022/07/28 01:18:17;;;;;;;9.30;2.10;;;12.50;81.50;;;;;;5042949;28;20266;-89
2022/07/28 01:20:51;;;;;;;6.43;2.03;;;12.50;80.90;;;;;;5041704;28;20213;-87
2022/07/28 01:23:30;;;;;;;11.27;2.40;;;12.50;80.40;;;;;;5041186;28;20194;-87
2022/07/28 01:26:28;;;;;;;4.87;1.40;;;12.60;80.20;;;;;;5039265;28;20223;-87
2022/07/28 01:29:30;;;;;;;3.53;1.83;;;12.70;80.10;;;;;;5038109;28;20165;-88
2022/07/28 01:32:07;;;;;;;6.80;2.00;;;12.70;80.20;;;;;;5038004;28;20164;-87
2022/07/28 01:34:42;;;;;;;5.80;1.63;;;12.70;79.80;;;;;;5038295;28;20208;-87
2022/07/28 01:37:16;;;;;;;6.37;1.80;;;12.80;79.70;;;;;;5055836;28;20622;-87
2022/07/28 01:39:43;;;;;;;6.47;1.70;;;12.80;79.60;;;;;;5055740;28;20607;-87
2022/07/28 01:42:12;;;;;;;4.90;1.70;;;12.80;79.40;;;;;;5037845;28;20195;-87
2022/07/28 01:44:42;;;;;;;7.30;1.93;;;12.80;79.40;;;;;;5037710;28;20188;-87
2022/07/28 01:47:09;;;;;;;4.40;1.70;;;12.90;80.20;;;;;;5037659;28;20654;-87
2022/07/28 01:49:36;;;;;;;5.17;1.90;;;13.00;81.00;;;;;;5037854;28;20659;-87
2022/07/28 01:52:06;;;;;;;4.00;1.57;;;13.00;81.90;;;;;;5037834;28;20178;-88
2022/07/28 01:54:36;;;;;;;3.57;1.80;;;13.00;82.60;;;;;;5055487;28;20216;-87
2022/07/28 01:57:02;;;;;;;5.10;1.77;;;13.00;83.00;;;;;;5055449;28;20198;-88
2022/07/28 01:59:29;;;;;;;6.77;1.93;;;12.90;83.30;;;;;;5037646;28;20204;-87
2022/07/28 02:01:57;;;;;;;4.03;1.73;;;12.90;83.40;;;;;;5037518;28;20206;-87
2022/07/28 02:04:24;;;;;;;4.50;1.57;;;12.90;83.90;;;;;;5055084;28;20192;-87
2022/07/28 02:06:53;;;;;;;5.50;1.60;;;12.90;83.60;;;;;;5037313;28;20221;-87
2022/07/28 02:09:20;;;;;;;4.30;1.60;;;12.90;83.10;;;;;;5037375;28;20211;-87
2022/07/28 02:11:50;;;;;;;5.97;1.60;;;13.00;82.80;;;;;;5037344;28;20214;-88
2022/07/28 02:14:20;;;;;;;5.03;1.70;;;13.10;82.80;;;;;;5055360;28;20268;-87
2022/07/28 02:16:50;;;;;;;5.07;1.80;;;13.20;82.60;;;;;;5038292;28;20184;-88
2022/07/28 02:19:18;;;;;;;3.80;1.40;;;13.20;82.30;;;;;;5037184;28;20201;-87
2022/07/28 02:21:46;;;;;;;4.67;1.70;;;13.30;82.20;;;;;;5054968;28;20538;-87
2022/07/28 02:24:12;;;;;;;4.57;1.57;;;13.30;82.00;;;;;;5054922;28;20554;-88
2022/07/28 02:26:49;;;;;;;5.37;1.70;;;13.40;82.20;;;;;;5037114;28;20261;-87
2022/07/28 02:29:21;;;;;;;5.83;1.80;;;13.30;82.60;;;;;;5037137;28;20245;-87
2022/07/28 02:31:53;;;;;;;5.57;1.73;;;13.30;83.10;;;;;;5036967;28;20172;-87
2022/07/28 02:34:21;;;;;;;3.67;1.63;;;13.20;83.70;;;;;;5036844;28;20216;-87
2022/07/28 02:36:54;;;;;;;4.43;1.83;;;13.20;84.10;;;;;;5054749;28;20547;-87
2022/07/28 02:39:24;;;;;;;3.30;1.43;;;13.20;84.10;;;;;;5036909;28;20171;-87
2022/07/28 02:41:57;;;;;;;4.73;2.07;;;13.20;84.20;;;;;;5036787;28;20196;-87
2022/07/28 02:44:29;;;;;;;3.90;1.53;;;13.20;84.30;;;;;;5036805;28;20688;-87
2022/07/28 02:46:56;;;;;;;2.50;1.43;;;13.20;84.30;;;;;;5054728;28;20163;-88
2022/07/28 02:49:31;;;;;;;3.70;1.33;;;13.20;84.30;;;;;;5036660;28;20172;-88
2022/07/28 02:52:00;;;;;;;4.03;1.50;;;13.20;84.30;;;;;;5036631;28;20183;-87
2022/07/28 02:54:28;;;;;;;3.23;1.67;;;13.20;84.20;;;;;;5037362;28;20196;-87
2022/07/28 02:56:56;;;;;;;4.97;2.20;;;13.20;84.10;;;;;;5036705;28;20184;-87
2022/07/28 02:59:23;;;;;;;5.63;2.00;;;13.10;83.80;;;;;;5036459;28;20593;-87
2022/07/28 03:01:49;;;;;;;3.70;1.73;;;13.00;83.70;;;;;;5037485;28;20200;-87
2022/07/28 03:04:15;;;;;;;4.80;1.77;;;13.10;83.70;;;;;;5054166;28;20208;-88
2022/07/28 03:06:41;;;;;;;4.87;1.47;;;13.00;83.50;;;;;;5036272;28;20229;-87
2022/07/28 03:09:08;;;;;;;5.70;1.63;;;13.10;83.50;;;;;;5054059;28;20259;-87
2022/07/28 03:11:34;;;;;;;8.33;1.53;;;13.20;83.30;;;;;;5036165;28;20205;-87
2022/07/28 03:13:59;;;;;;;10.70;1.80;;;13.20;83.10;;;;;;5036088;28;20200;-87
2022/07/28 03:16:25;;;;;;;4.13;1.80;;;13.20;82.90;;;;;;5036104;28;20195;-87
2022/07/28 03:18:51;;;;;;;1.93;1.50;;;13.20;83.10;;;;;;5035920;28;20184;-87
2022/07/28 03:21:16;;;;;;;5.30;1.87;;;13.20;84.00;;;;;;5052604;28;20285;-88
2022/07/28 03:23:45;;;;;;;4.07;1.60;;;13.20;84.20;;;;;;5052542;28;20184;-88
2022/07/28 03:26:22;;;;;;;4.27;1.80;;;13.20;84.20;;;;;;5053839;28;20171;-87
2022/07/28 03:28:51;;;;;;;6.73;1.60;;;13.30;83.80;;;;;;5035966;28;20168;-87
2022/07/28 03:31:20;;;;;;;4.87;1.90;;;13.30;83.60;;;;;;5053796;28;20179;-87
2022/07/28 03:33:47;;;;;;;5.00;1.67;;;13.30;83.50;;;;;;5053799;28;20215;-87
2022/07/28 03:36:17;;;;;;;1.97;1.30;;;13.30;83.40;;;;;;5053670;28;20198;-87
2022/07/28 03:38:50;;;;;;;4.80;1.80;;;13.10;84.40;;;;;;5035752;28;20174;-87
2022/07/28 03:41:18;;;;;;;5.57;1.83;;;13.00;85.10;;;;;;5035634;28;20218;-87
2022/07/28 03:43:44;;;;;;;4.60;2.23;;;13.00;85.50;;;;;;5035580;28;20283;-88
2022/07/28 03:46:11;;;;;;;4.70;1.60;;;13.00;85.70;;;;;;5035532;28;20187;-88
2022/07/28 03:48:37;;;;;;;7.07;1.80;;;13.00;85.70;;;;;;5035449;28;20187;-88
2022/07/28 03:51:03;;;;;;;5.10;1.53;;;13.10;85.90;;;;;;5035400;28;20184;-87
2022/07/28 03:53:28;;;;;;;2.87;1.60;;;13.00;85.80;;;;;;5035456;28;20209;-88
2022/07/28 03:55:54;;;;;;;4.33;1.60;;;13.10;85.90;;;;;;5035483;28;20567;-88
2022/07/28 03:58:22;;;;;;;7.20;1.90;;;13.10;86.10;;;;;;5053189;28;20180;-87
2022/07/28 04:00:48;;;;;;;4.73;1.70;;;13.00;86.30;;;;;;5035211;28;20330;-87
2022/07/28 04:03:15;;;;;;;5.83;1.87;;;13.10;86.40;;;;;;5053176;28;20199;-87
2022/07/28 04:05:40;;;;;;;3.93;1.60;;;13.40;86.50;;;;;;5035316;28;20188;-87
2022/07/28 04:08:06;;;;;;;7.17;2.00;;;13.70;85.70;;;;;;5035306;28;20179;-87
2022/07/28 04:10:32;;;;;;;6.10;1.90;;;13.70;84.70;;;;;;5053219;28;20259;-87
2022/07/28 04:12:58;;;;;;;8.20;1.70;;;13.60;84.00;;;;;;5035266;28;20180;-87
2022/07/28 04:15:25;;;;;;;3.33;2.00;;;13.70;84.10;;;;;;5035292;28;20231;-88
2022/07/28 04:17:52;;;;;;;4.00;1.60;;;13.80;83.90;;;;;;5035323;28;20541;-88
2022/07/28 04:20:19;;;;;;;7.03;1.80;;;13.70;83.90;;;;;;5035195;28;20241;-88
2022/07/28 04:22:46;;;;;;;6.23;1.40;;;13.70;84.00;;;;;;5053038;28;20646;-87
2022/07/28 04:25:12;;;;;;;8.80;2.10;;;13.70;84.50;;;;;;5035124;28;20200;-87
2022/07/28 04:27:39;;;;;;;7.03;1.90;;;13.70;84.80;;;;;;5053164;28;20176;-87
2022/07/28 04:30:26;;;;;;;4.33;1.80;;;13.60;85.10;;;;;;5035149;28;20179;-87
2022/07/28 04:32:53;;;;;;;4.07;2.17;;;13.60;85.70;;;;;;5035072;28;20175;-87
2022/07/28 04:35:21;;;;;;;4.83;2.57;;;13.60;86.30;;;;;;5035207;28;20211;-88
2022/07/28 04:37:47;;;;;;;6.33;2.23;;;13.60;86.60;;;;;;5035036;28;20191;-87
2022/07/28 04:40:13;;;;;;;2.73;1.67;;;13.60;86.50;;;;;;5034990;28;20226;-87
2022/07/28 04:42:40;;;;;;;7.13;1.87;;;13.70;86.40;;;;;;5034941;28;20634;-87
2022/07/28 04:45:07;;;;;;;8.83;2.17;;;13.80;86.40;;;;;;5035196;28;20204;-87
2022/07/28 04:47:33;;;;;;;7.80;2.63;;;13.80;86.20;;;;;;5052732;28;20558;-87
2022/07/28 04:49:58;;;;;;;3.50;1.80;;;13.90;86.10;;;;;;5052730;28;20175;-87
2022/07/28 04:52:25;;;;;;;6.30;1.70;;;14.00;86.00;;;;;;5035070;28;20172;-87
2022/07/28 04:54:51;;;;;;;3.47;1.50;;;14.10;85.80;;;;;;5052819;28;20275;-88
2022/07/28 04:57:17;;;;;;;7.20;1.57;;;14.10;85.60;;;;;;5034963;28;20314;-88
2022/07/28 04:59:42;;;;;;;5.00;1.50;;;14.20;85.40;;;;;;5034795;28;20189;-87
2022/07/28 05:02:08;;;;;;;4.83;1.50;;;14.20;84.80;;;;;;5036918;28;20267;-87
2022/07/28 05:04:34;;;;;;;8.70;1.83;;;14.10;84.70;;;;;;5056611;28;20188;-87
2022/07/28 05:07:00;;;;;;;3.50;1.77;;;14.20;84.70;;;;;;5056399;28;20168;-87
2022/07/28 05:09:25;;;;;;;5.00;2.00;;;14.20;84.60;;;;;;5056633;28;20186;-88
2022/07/28 05:11:51;;;;;;;3.63;1.80;;;14.20;84.60;;;;;;5056560;28;20180;-87
2022/07/28 05:14:17;;;;;;;9.40;1.93;;;14.20;84.60;;;;;;5038404;28;20258;-87
2022/07/28 05:16:43;;;;;;;5.40;2.10;;;14.10;85.20;;;;;;5038385;28;20206;-87
2022/07/28 05:19:09;;;;;;;2.37;1.83;;;14.10;85.80;;;;;;5038364;28;20267;-88
2022/07/28 05:21:35;;;;;;;3.77;1.87;;;14.20;86.10;;;;;;5038227;28;20302;-88
2022/07/28 05:24:00;;;;;;;8.63;2.30;;;14.20;86.10;;;;;;5038364;28;20199;-88
2022/07/28 05:26:27;;;;;;;3.90;2.10;;;14.30;86.00;;;;;;5056287;28;20577;-88
2022/07/28 05:28:53;;;;;;;8.53;2.20;;;14.30;86.00;;;;;;5055988;28;20536;-88
2022/07/28 05:31:19;;;;;;;6.90;2.37;;;14.20;86.00;;;;;;5056244;28;20168;-88
2022/07/28 05:33:44;;;;;;;2.63;1.73;;;14.10;85.80;;;;;;5038111;28;20233;-87
2022/07/28 05:36:10;;;;;;;9.07;2.07;;;14.20;86.00;;;;;;5055858;28;20169;-88
2022/07/28 05:38:36;;;;;;;5.17;1.97;;;14.00;85.50;;;;;;5037994;28;20179;-88
2022/07/28 05:41:02;;;;;;;11.33;2.40;;;14.10;85.80;;;;;;5037854;28;20196;-87
2022/07/28 05:43:27;;;;;;;6.53;1.90;;;14.10;86.00;;;;;;5055740;28;20195;-87
2022/07/28 05:45:53;;;;;;;3.23;2.07;;;14.20;86.10;;;;;;5037731;28;20200;-88
2022/07/28 05:48:20;;;;;;;5.53;2.10;;;14.20;85.60;;;;;;5037914;28;20257;-88
2022/07/28 05:50:46;;;;;;;8.17;2.37;;;14.20;85.40;;;;;;5037781;28;20210;-88
2022/07/28 05:53:12;;;;;;;10.20;2.40;;;14.20;85.40;;;;;;5055481;28;20176;-88
2022/07/28 05:55:38;;;;;;;6.17;2.00;;;14.20;85.20;;;;;;5055799;28;20223;-88
2022/07/28 05:58:03;;;;;;;8.67;1.90;;;14.20;84.90;;;;;;5055521;28;20564;-88
2022/07/28 06:00:32;;;;;;;10.07;2.23;;;14.20;84.60;;;;;;5037504;28;20690;-88
2022/07/28 06:03:00;;;;;;;5.63;1.90;;;14.20;84.70;;;;;;5055338;28;20164;-88
2022/07/28 06:05:28;;;;;;;5.83;2.00;;;14.20;84.10;;;;;;5037413;28;20283;-88
2022/07/28 06:07:53;;;;;;;5.50;1.90;;;14.20;84.10;;;;;;5037493;28;20194;-87
2022/07/28 06:10:22;;;;;;;5.73;2.00;;;14.10;82.40;;;;;;5055236;28;20239;-87
2022/07/28 06:12:55;;;;;;;8.03;1.90;;;14.30;82.30;;;;;;5037462;28;20638;-88
2022/07/28 06:15:25;;;;;;;4.97;1.90;;;14.30;82.20;;;;;;5055200;28;20629;-87
2022/07/28 06:17:52;;;;;;;4.27;1.50;;;14.30;81.90;;;;;;5037167;28;20665;-88
2022/07/28 06:20:18;;;;;;;5.13;1.93;;;14.30;81.50;;;;;;5037383;28;20735;-88
2022/07/28 06:22:48;;;;;;;5.40;1.87;;;14.30;79.80;;;;;;5055166;28;20221;-87
2022/07/28 06:25:18;;;;;;;6.50;1.90;;;14.40;79.30;;;;;;5055075;28;20275;-88
2022/07/28 06:27:46;;;;;;;7.10;1.60;;;14.40;78.30;;;;;;5055086;28;20238;-87
2022/07/28 06:30:11;;;;;;;7.80;1.80;;;14.50;78.40;;;;;;5037493;28;20176;-87
2022/07/28 06:32:37;;;;;;;6.43;1.67;;;14.40;76.60;;;;;;5037165;28;20180;-88
2022/07/28 06:35:04;;;;;;;4.23;1.40;;;14.50;76.90;;;;;;5036939;28;20243;-87
2022/07/28 06:37:30;;;;;;;6.50;2.07;;;14.50;75.60;;;;;;5036844;28;20180;-87
2022/07/28 06:39:55;;;;;;;4.53;1.70;;;14.70;76.50;;;;;;5036784;28;20183;-87
2022/07/28 06:42:21;;;;;;;5.23;1.70;;;14.80;76.70;;;;;;5036619;28;20650;-87
2022/07/28 06:44:49;;;;;;;7.30;2.00;;;14.80;76.60;;;;;;5054448;28;20200;-88
2022/07/28 06:47:14;;;;;;;6.70;1.50;;;14.90;76.80;;;;;;5036757;28;20268;-87
2022/07/28 06:49:40;;;;;;;12.83;1.93;;;14.80;75.00;;;;;;5054436;28;20258;-87
2022/07/28 06:52:05;;;;;;;4.37;1.60;;;14.80;73.50;;;;;;5036569;28;20229;-87
2022/07/28 06:54:31;;;;;;;5.33;1.67;;;14.80;74.90;;;;;;5036368;28;20196;-87
2022/07/28 06:56:56;;;;;;;5.83;1.73;;;15.00;74.80;;;;;;5036487;28;20210;-88
2022/07/28 06:59:22;;;;;;;2.77;1.30;;;14.90;74.20;;;;;;5054285;28;20195;-87
2022/07/28 07:01:47;;;;;;;8.33;1.63;;;15.00;73.60;;;;;;5036483;28;20556;-86
2022/07/28 07:04:13;;;;;;;5.60;1.57;;;15.10;74.20;;;;;;5036380;28;20282;-87
2022/07/28 07:06:39;;;;;;;7.07;2.33;;;15.10;73.70;;;;;;5054440;28;20245;-87
2022/07/28 07:09:04;;;;;;;6.43;1.43;;;15.00;73.70;;;;;;5036979;28;20172;-87
2022/07/28 07:11:30;;;;;;;7.80;1.30;;;15.10;73.70;;;;;;5036734;28;20210;-87
2022/07/28 07:13:55;;;;;;;6.97;1.97;;;15.00;72.80;;;;;;5036646;28;20630;-87
2022/07/28 07:16:21;;;;;;;7.47;1.40;;;15.00;72.70;;;;;;5036176;28;20187;-87
2022/07/28 07:18:49;;;;;;;5.47;1.63;;;15.20;73.30;;;;;;5036095;28;20262;-89
2022/07/28 07:21:15;;;;;;;5.80;1.50;;;15.30;73.50;;;;;;5036009;28;20203;-88
2022/07/28 07:23:40;;;;;;;3.87;1.40;;;15.20;73.10;;;;;;5035417;28;20247;-88
2022/07/28 07:26:06;;;;;;;6.28;1.67;;;15.30;73.40;;;;;;5036118;28;20180;-89
2022/07/28 07:28:33;;;;;;;5.03;1.43;;;15.30;73.40;;;;;;5036440;28;20172;-87
2022/07/28 07:30:58;;;;;;;3.67;1.40;;;15.20;73.50;;;;;;5035903;28;20642;-88
2022/07/28 07:33:24;;;;;;;10.50;2.23;;;15.20;73.30;;;;;;5035876;28;20172;-87
2022/07/28 07:35:49;;;;;;;7.10;1.70;;;15.30;74.30;;;;;;5035804;28;20204;-88
2022/07/28 07:38:15;;;;;;;4.68;1.42;;;15.40;73.30;;;;;;5035924;28;20214;-88
2022/07/28 07:40:41;;;;;;;6.10;1.42;;;15.50;73.00;;;;;;5053672;28;20199;-88
2022/07/28 07:43:06;;;;;;;7.28;1.48;;;15.40;72.80;;;;;;5053976;28;20203;-88
2022/07/28 07:45:33;;;;;;;3.75;1.45;;;15.50;73.90;;;;;;5035776;28;20211;-88
2022/07/28 07:47:59;;;;;;;4.57;1.80;;;15.70;73.40;;;;;;5035699;28;20199;-88
2022/07/28 07:50:25;;;;;;;6.20;1.65;;;15.50;72.40;;;;;;5035710;28;20172;-87
2022/07/28 07:52:50;;;;;;;5.55;1.70;;;15.60;72.80;;;;;;5035610;28;20238;-88
2022/07/28 07:55:16;;;;;;;3.95;1.38;;;15.60;73.00;;;;;;5035518;28;20202;-88
2022/07/28 07:57:43;;;;;;;5.43;1.63;;;15.70;72.60;;;;;;5035576;28;20262;-87
2022/07/28 08:00:09;;;;;;;3.33;1.35;;;15.50;72.80;;;;;;5035327;28;20286;-87
2022/07/28 08:02:38;;;;;;;6.07;1.23;;;15.40;72.30;;;;;;5053620;28;20657;-88
2022/07/28 08:05:04;;;;;;;6.07;1.63;;;15.60;72.50;;;;;;5053210;28;20195;-87
2022/07/28 08:07:29;;;;;;;3.23;1.57;;;15.60;72.30;;;;;;5035584;28;20171;-88
2022/07/28 08:09:55;;;;;;;6.83;1.50;;;15.70;73.00;;;;;;5053272;28;20529;-87
2022/07/28 08:12:20;;;;;;;4.67;1.43;;;15.80;73.00;;;;;;5035714;28;20215;-88
2022/07/28 08:14:46;;;;;;;6.03;1.52;;;15.70;72.50;;;;;;5035875;28;20196;-87
2022/07/28 08:17:12;;;;;;;6.20;1.55;;;15.70;72.10;;;;;;5035616;28;20168;-87
2022/07/28 08:19:37;;;;;;;7.05;1.60;;;15.80;73.40;;;;;;5035398;28;20168;-87
2022/07/28 08:22:03;;;;;;;5.13;1.73;;;15.80;72.40;;;;;;5053108;28;20275;-87
2022/07/28 08:24:28;;;;;;;3.33;1.45;;;15.70;71.10;;;;;;5035471;28;20191;-87
2022/07/28 08:26:54;;;;;;;6.07;1.92;;;15.70;72.80;;;;;;5052985;28;20258;-88
2022/07/28 08:29:19;;;;;;;3.10;1.60;;;15.70;73.10;;;;;;5035331;28;20176;-87
2022/07/28 08:31:45;;;;;;;4.32;1.50;;;15.90;73.20;;;;;;5035169;28;20184;-87
2022/07/28 08:34:11;;;;;;;7.93;1.83;;;15.80;71.50;;;;;;5034941;28;20207;-87
2022/07/28 08:36:36;;;;;;;6.80;1.60;;;15.70;72.30;;;;;;5039026;28;20180;-88
2022/07/28 08:39:02;;;;;;;10.95;1.92;;;15.70;72.70;;;;;;5039224;28;20211;-87
2022/07/28 08:41:52;;;;;;;3.22;1.42;;;15.90;73.10;;;;;;5039410;28;20226;-88
2022/07/28 08:44:23;;;;;;;4.28;1.40;;;15.90;72.90;;;;;;5056781;28;20231;-87
2022/07/28 08:46:50;;;;;;;7.53;2.28;;;16.00;71.80;;;;;;5056749;28;20180;-87
2022/07/28 08:49:16;;;;;;;6.20;2.10;;;16.00;71.50;;;;;;5038881;28;20168;-87
2022/07/28 08:51:46;;;;;;;10.48;3.85;;;16.20;71.50;;;;;;5038949;28;20560;-87
2022/07/28 08:54:14;;;;;;;4.22;1.23;;;16.20;71.40;;;;;;5038725;28;20199;-87
2022/07/28 08:56:42;;;;;;;4.32;1.70;;;16.40;70.70;;;;;;5038834;28;20204;-87
2022/07/28 08:59:08;;;;;;;7.35;2.53;;;16.50;71.20;;;;;;5056535;28;20241;-87
2022/07/28 09:01:34;;;;;;;5.82;1.83;;;16.40;70.30;;;;;;5056399;28;20661;-87
2022/07/28 09:04:01;;;;;;;7.53;2.00;;;16.70;70.00;;;;;;5056438;28;20188;-87
2022/07/28 09:06:27;;;;;;;5.32;1.65;;;16.70;69.20;;;;;;5038561;28;20199;-87
2022/07/28 09:08:52;;;;;;;5.68;2.03;;;16.80;67.90;;;;;;5038571;28;20184;-88
2022/07/28 09:11:18;;;;;;;4.13;1.20;;;17.10;68.30;;;;;;5056357;28;20184;-89
2022/07/28 09:13:43;;;;;;;5.57;1.30;;;17.00;65.20;;;;;;5038451;28;20179;-88
2022/07/28 09:16:11;;;;;;;3.10;0.93;;;17.10;65.60;;;;;;5038483;28;20176;-88
2022/07/28 09:18:37;;;;;;;3.47;1.23;;;16.90;66.40;;;;;;5038322;28;20180;-88
2022/07/28 09:21:03;;;;;;;3.72;1.25;;;17.20;68.40;;;;;;5038233;28;20215;-88
2022/07/28 09:23:45;;;;;;;7.15;1.30;;;17.40;66.80;;;;;;5038280;28;20524;-88
2022/07/28 09:26:11;;;;;;;4.68;1.15;;;17.40;67.70;;;;;;5038339;28;20168;-88
2022/07/28 09:28:57;;;;;;;8.80;1.38;;;17.30;63.80;;;;;;5038191;28;20194;-88
2022/07/28 09:31:24;;;;;;;4.65;1.23;;;17.50;66.10;;;;;;5038508;28;20553;-88
2022/07/28 09:34:02;;;;;;;4.47;1.40;;;17.90;65.20;;;;;;5055698;28;20267;-88
2022/07/28 09:36:29;;;;;;;4.40;1.30;;;17.50;63.60;;;;;;5055871;28;20179;-88
2022/07/28 09:38:55;;;;;;;3.08;1.17;;;17.80;63.50;;;;;;5055898;28;20182;-89
2022/07/28 09:41:22;;;;;;;3.53;1.33;;;17.80;62.70;;;;;;5037974;28;20673;-88
2022/07/28 09:43:50;;;;;;;3.83;1.30;;;17.50;64.10;;;;;;5038611;28;20238;-88
2022/07/28 09:46:18;;;;;;;5.15;1.73;;;17.70;64.20;;;;;;5037922;28;20202;-88
2022/07/28 09:48:49;;;;;;;9.98;1.67;;;17.70;63.00;;;;;;5037243;28;20187;-88
2022/07/28 09:51:24;;;;;;;2.78;0.93;;;17.80;61.10;;;;;;5037715;28;20226;-86
2022/07/28 09:53:51;;;;;;;3.97;1.17;;;17.80;61.70;;;;;;5055503;28;20710;-88
2022/07/28 09:56:17;;;;;;;3.47;1.88;;;18.10;62.70;;;;;;5055491;28;20187;-88
2022/07/28 09:58:54;;;;;;;3.38;2.00;;;17.90;62.10;;;;;;5055533;28;20250;-88
2022/07/28 10:01:20;;;;;;;3.90;1.52;;;18.10;61.20;;;;;;5055320;28;20703;-89
2022/07/28 10:03:51;;;;;;;3.70;1.00;;;17.90;61.80;;;;;;5055330;28;20172;-88
2022/07/28 10:06:27;;;;;;;10.88;1.95;;;18.00;62.40;;;;;;5037743;28;20288;-89
2022/07/28 10:08:55;;;;;;;3.65;1.23;;;18.20;62.50;;;;;;5038364;28;20246;-89
2022/07/28 10:11:23;;;;;;;5.53;1.27;;;18.60;60.90;;;;;;5037398;28;20209;-88
2022/07/28 10:13:59;;;;;;;5.82;1.38;;;18.70;61.50;;;;;;5055099;28;20180;-88
2022/07/28 10:16:52;;;;;;;4.28;1.30;;;19.20;60.90;;;;;;5037346;28;20160;-89
2022/07/28 10:19:18;;;;;;;5.35;1.30;;;19.10;58.60;;;;;;5037619;28;20250;-89
2022/07/28 10:21:45;;;;;;;4.70;1.40;;;19.00;57.30;;;;;;5037223;28;20671;-87
2022/07/28 10:24:21;;;;;;;6.32;1.45;;;18.70;60.00;;;;;;5037091;28;20282;-88
2022/07/28 10:26:47;;;;;;;3.00;1.00;;;18.40;59.50;;;;;;5055034;28;20636;-88
2022/07/28 10:29:15;;;;;;;7.07;4.35;;;18.50;60.50;;;;;;5037126;28;20543;-88
2022/07/28 10:31:51;;;;;;;7.65;1.83;;;18.50;59.40;;;;;;5036968;28;20183;-88
2022/07/28 10:34:21;;;;;;;6.43;1.92;;;18.70;59.80;;;;;;5036825;28;20215;-88
2022/07/28 10:36:49;;;;;;;1.80;0.90;;;18.50;60.60;;;;;;5054947;28;20160;-88
2022/07/28 10:39:18;;;;;;;6.00;1.25;;;18.50;58.40;;;;;;5036973;28;20180;-86
2022/07/28 10:41:44;;;;;;;2.67;1.40;;;18.30;60.50;;;;;;5054515;28;20557;-87
2022/07/28 10:44:16;;;;;;;5.68;1.35;;;18.40;58.70;;;;;;5036870;28;20195;-87
2022/07/28 10:46:42;;;;;;;4.80;1.08;;;18.20;58.50;;;;;;5037303;28;20157;-87
2022/07/28 10:49:10;;;;;;;4.10;1.10;;;18.40;60.10;;;;;;5036851;28;20286;-88
2022/07/28 10:51:39;;;;;;;5.63;1.30;;;18.70;56.60;;;;;;5036677;28;20218;-87
2022/07/28 10:54:29;;;;;;;2.42;1.10;;;18.80;57.20;;;;;;5036433;28;20567;-86
2022/07/28 10:57:01;;;;;;;4.60;1.27;;;18.70;57.10;;;;;;5026711;28;20187;-86
2022/07/28 10:59:58;;;;;;;7.30;1.30;;;18.90;57.80;;;;;;5036383;28;20631;-86
2022/07/28 11:02:47;;;;;;;2.58;1.13;;;19.00;58.50;;;;;;5036417;28;20196;-85
2022/07/28 11:05:33;;;;;;;4.60;1.27;;;18.80;57.80;;;;;;5036281;28;20713;-86
2022/07/28 11:08:15;;;;;;;7.30;1.90;;;18.80;58.40;;;;;;5036281;28;20194;-86
2022/07/28 11:10:47;;;;;;;4.50;1.65;;;18.70;57.90;;;;;;5036296;28;20160;-86
2022/07/28 11:13:27;;;;;;;4.78;1.23;;;18.90;60.00;;;;;;5037137;28;20169;-85
2022/07/28 11:15:54;;;;;;;6.00;1.50;;;18.80;58.10;;;;;;5036086;28;20199;-85
2022/07/28 11:18:20;;;;;;;2.95;1.10;;;19.00;57.30;;;;;;5036152;28;20665;-87
2022/07/28 11:20:52;;;;;;;5.00;1.45;;;19.10;56.70;;;;;;5035914;28;20227;-86
2022/07/28 11:23:53;;;;;;;2.60;1.10;;;19.10;55.80;;;;;;5036267;28;20171;-86
2022/07/28 11:28:56;;;;;;;3.90;0.90;;;19.00;56.80;;;;;;5053991;28;20187;-87
2022/07/28 11:31:43;;;;;;;4.88;1.08;;;19.00;56.70;;;;;;5035912;28;20223;-87
2022/07/28 11:34:20;;;;;;;2.67;0.82;;;18.90;58.60;;;;;;5053536;28;20580;-86
2022/07/28 11:37:06;;;;;;;1.70;0.90;;;18.80;57.30;;;;;;5053995;28;20199;-86
2022/07/28 11:39:37;;;;;;;3.55;1.20;;;18.50;57.00;;;;;;5036367;28;20605;-86
2022/07/28 11:42:29;;;;;;;3.03;1.20;;;18.70;57.50;;;;;;5035961;28;20199;-86
2022/07/28 11:44:56;;;;;;;3.55;1.42;;;18.80;57.20;;;;;;5036796;28;20619;-86
2022/07/28 11:47:25;;;;;;;3.17;1.10;;;18.90;57.90;;;;;;5054686;28;20176;-86
2022/07/28 11:50:11;;;;;;;1.85;0.93;;;18.90;55.30;;;;;;5036820;28;20179;-86
2022/07/28 11:52:36;;;;;;;3.00;0.75;;;19.10;57.10;;;;;;5055805;28;20196;-86
2022/07/28 11:55:03;;;;;;;6.32;1.17;;;18.80;56.30;;;;;;5036721;28;20215;-86
2022/07/28 11:57:29;;;;;;;3.53;0.90;;;18.90;56.90;;;;;;5054778;28;20203;-87
2022/07/28 11:59:57;;;;;;;3.22;1.05;;;19.20;57.90;;;;;;5035914;28;20176;-86
2022/07/28 12:02:26;;;;;;;8.30;2.40;;;19.30;54.70;;;;;;5036349;28;20187;-86
2022/07/28 12:05:09;;;;;;;3.33;1.50;;;19.40;54.30;;;;;;5054278;28;20267;-86
2022/07/28 12:07:38;;;;;;;3.30;1.20;;;19.20;55.90;;;;;;5054955;28;20151;-86
2022/07/28 12:10:41;;;;;;;2.75;0.90;;;19.10;55.40;;;;;;5036120;28;20179;-86
2022/07/28 12:13:07;;;;;;;2.00;1.10;;;19.00;54.50;;;;;;5036478;28;20233;-87
2022/07/28 12:15:36;;;;;;;2.28;1.10;;;19.40;55.70;;;;;;5054182;28;20270;-86
2022/07/28 12:18:02;;;;;;;2.00;0.95;;;19.30;55.20;;;;;;5036340;28;20314;-87
2022/07/28 12:20:30;;;;;;;2.78;0.80;;;19.30;56.40;;;;;;5055096;28;20270;-86
2022/07/28 12:23:02;;;;;;;7.25;5.75;;;19.20;54.80;;;;;;5036322;28;20470;-86
2022/07/28 12:25:28;;;;;;;8.60;6.47;;;19.20;54.80;;;;;;5036538;28;20823;-87
2022/07/28 12:27:55;;;;;;;109.07;98.93;;;19.20;54.50;;;;;;5053958;28;20411;-86
2022/07/28 12:30:26;;;;;;;47.05;42.15;;;19.50;55.60;;;;;;5037345;28;20420;-86
2022/07/28 12:32:52;;;;;;;12.82;8.25;;;19.90;51.90;;;;;;5037230;28;20642;-86
2022/07/28 12:35:18;;;;;;;5.82;2.88;;;19.50;53.10;;;;;;5055135;28;20215;-86
2022/07/28 12:37:48;;;;;;;3.05;1.67;;;19.70;55.00;;;;;;5037464;28;20172;-86
2022/07/28 12:40:16;;;;;;;2.67;1.52;;;19.80;53.00;;;;;;5037376;28;20233;-87
2022/07/28 12:42:42;;;;;;;8.55;1.30;;;20.00;54.70;;;;;;5035397;28;20176;-87
2022/07/28 12:45:09;;;;;;;4.78;1.20;;;19.90;51.50;;;;;;5035303;28;20282;-87
2022/07/28 12:47:34;;;;;;;2.90;0.98;;;19.80;54.10;;;;;;5035527;28;20168;-87
2022/07/28 12:50:12;;;;;;;2.67;1.08;;;20.10;54.70;;;;;;5035332;28;20179;-86
2022/07/28 12:52:39;;;;;;;2.97;1.08;;;19.90;55.40;;;;;;5053269;28;20646;-87
2022/07/28 12:55:20;;;;;;;2.20;0.80;;;19.40;54.50;;;;;;5053256;28;20576;-86
2022/07/28 12:57:46;;;;;;;3.95;1.10;;;19.40;54.20;;;;;;5035373;28;20173;-86